Enter the Airport ICAO Code

Search by Airport or City

Current Weather

SCDA | Diego Aracena International Airport

Iquique, Chile

Last Update 7 Minutes Ago

Completely Cloudy Sky

Temperature of 20 ēC

Moderate Winds from SouthWest

Temperature

20 ēC

Dew Point Temperature

14 ēC

Relative Humidity

68.52 %

Wind Direction

SouthWest (220ē, Without Significant Variations)

Wind Velocity

22 km/h (12 kt)

Gusts

None

Visibility

Greater than 10 Kilometers

Sea Level Pressure

1013 hPa (Hectopascals)

Layers of Clouds

90% to 100% of Sky Covered from 1036 mts (3400 ft) Above Ground Level.

METAR SCDA 022300Z 22012KT 9999 OVC034 20/14 Q1013

Weather Forecast

SCDA | Diego Aracena International Airport

Iquique, Chile

Forecast valid for the next 25 Hours

In 1 hour it is expected the begining of:

Mostly Cloudy Sky

Light to Moderate Winds from South

In 2 to 4 hours it is expected the begining of:

Completely Cloudy Sky

In 13 to 15 hours it is expected the begining of:

Clear Sky

In 17 to 19 hours it is expected the begining of:

Moderate Winds from West

In 23 to 25 hours it is expected the begining of:

Mostly Cloudy Sky

Light to Moderate Winds from South

Maximum Temperature

23 ēC in 19 Hours

Minimum Temperature

18 ēC in 5 Hours

TAF SCDA 022220Z 0300/0324 20007KT 9999 BKN030 TN18/0304Z TX23/0318Z BECMG 0301/0303 OVC027 BECMG 0312/0314 CAVOK BECMG 0316/0318 25012KT BECMG 0322/0324 20007KT BKN030